sensor_id;sensor_type;location;lat;lon;timestamp;pressure;altitude;pressure_sealevel;temperature;humidity
14273;BME280;7220;49.450;11.052;2023-03-08T07:01:16;96536.03;;;6.36;58.35
14273;BME280;7220;49.450;11.052;2023-03-08T07:05:17;96538.69;;;6.63;55.99
14273;BME280;7220;49.450;11.052;2023-03-08T07:09:17;96539.34;;;6.25;55.07
14273;BME280;7220;49.450;11.052;2023-03-08T07:13:17;96550.38;;;5.88;54.98
14273;BME280;7220;49.450;11.052;2023-03-08T07:17:18;96542.31;;;5.46;55.26
14273;BME280;7220;49.450;11.052;2023-03-08T07:21:19;96545.28;;;5.26;55.68
14273;BME280;7220;49.450;11.052;2023-03-08T07:25:20;96542.19;;;4.88;56.32
14273;BME280;7220;49.450;11.052;2023-03-08T07:29:20;96544.75;;;4.58;57.03
14273;BME280;7220;49.450;11.052;2023-03-08T07:33:21;96536.03;;;4.41;57.75
14273;BME280;7220;49.450;11.052;2023-03-08T07:37:21;96544.00;;;4.40;58.37
14273;BME280;7220;49.450;11.052;2023-03-08T07:41:22;96552.22;;;4.34;58.70
14273;BME280;7220;49.450;11.052;2023-03-08T07:45:22;96537.13;;;4.21;59.09
14273;BME280;7220;49.450;11.052;2023-03-08T07:49:22;96533.47;;;4.08;59.26
14273;BME280;7220;49.450;11.052;2023-03-08T07:53:22;96541.69;;;4.02;59.69
14273;BME280;7220;49.450;11.052;2023-03-08T07:57:23;96541.44;;;3.90;60.03
14273;BME280;7220;49.450;11.052;2023-03-08T08:01:24;96545.56;;;3.78;60.40
14273;BME280;7220;49.450;11.052;2023-03-08T08:05:24;96558.16;;;3.72;61.56
14273;BME280;7220;49.450;11.052;2023-03-08T08:09:24;96552.13;;;3.70;63.20
14273;BME280;7220;49.450;11.052;2023-03-08T08:13:25;96541.78;;;3.67;64.02
14273;BME280;7220;49.450;11.052;2023-03-08T08:17:25;96547.44;;;3.59;63.79
14273;BME280;7220;49.450;11.052;2023-03-08T08:21:26;96533.78;;;3.52;64.86
14273;BME280;7220;49.450;11.052;2023-03-08T08:25:26;96530.03;;;3.40;68.04
14273;BME280;7220;49.450;11.052;2023-03-08T08:29:26;96509.25;;;3.36;68.92
14273;BME280;7220;49.450;11.052;2023-03-08T08:33:27;96494.25;;;3.38;70.31
14273;BME280;7220;49.450;11.052;2023-03-08T08:37:28;96493.09;;;3.43;71.12
14273;BME280;7220;49.450;11.052;2023-03-08T08:41:29;96475.38;;;3.47;72.03
14273;BME280;7220;49.450;11.052;2023-03-08T08:45:31;96470.00;;;3.50;72.71
14273;BME280;7220;49.450;11.052;2023-03-08T08:49:31;96472.28;;;3.56;73.39
14273;BME280;7220;49.450;11.052;2023-03-08T08:53:32;96455.50;;;3.59;73.56
14273;BME280;7220;49.450;11.052;2023-03-08T08:57:33;96440.84;;;3.71;73.38
14273;BME280;7220;49.450;11.052;2023-03-08T09:01:33;96419.59;;;3.75;73.92
14273;BME280;7220;49.450;11.052;2023-03-08T09:05:41;96441.13;;;3.82;74.38
14273;BME280;7220;49.450;11.052;2023-03-08T09:09:41;96407.56;;;3.71;76.20
14273;BME280;7220;49.450;11.052;2023-03-08T09:13:42;96416.69;;;3.48;78.79
14273;BME280;7220;49.450;11.052;2023-03-08T09:17:42;96395.50;;;3.35;80.94
14273;BME280;7220;49.450;11.052;2023-03-08T09:21:42;96375.34;;;3.36;83.16
14273;BME280;7220;49.450;11.052;2023-03-08T09:25:43;96368.56;;;3.31;84.99
14273;BME280;7220;49.450;11.052;2023-03-08T09:29:43;96364.22;;;3.14;88.84
14273;BME280;7220;49.450;11.052;2023-03-08T09:33:48;96352.13;;;3.12;92.67
14273;BME280;7220;49.450;11.052;2023-03-08T09:37:50;96347.41;;;3.01;96.27
14273;BME280;7220;49.450;11.052;2023-03-08T09:41:56;96331.16;;;2.94;100.00
14273;BME280;7220;49.450;11.052;2023-03-08T09:45:57;96312.50;;;2.83;100.00
14273;BME280;7220;49.450;11.052;2023-03-08T09:50:06;96316.47;;;2.74;100.00
14273;BME280;7220;49.450;11.052;2023-03-08T09:54:13;96298.34;;;2.70;100.00
14273;BME280;7220;49.450;11.052;2023-03-08T10:06:49;96270.28;;;2.72;100.00
14273;BME280;7220;49.450;11.052;2023-03-08T10:11:05;96247.69;;;2.85;100.00
14273;BME280;7220;49.450;11.052;2023-03-08T10:15:18;96247.00;;;2.81;100.00
14273;BME280;7220;49.450;11.052;2023-03-08T10:19:24;96233.91;;;2.97;100.00
14273;BME280;7220;49.450;11.052;2023-03-08T10:23:30;96247.00;;;2.81;100.00
14273;BME280;7220;49.450;11.052;2023-03-08T10:27:33;96243.88;;;2.75;100.00
14273;BME280;7220;49.450;11.052;2023-03-08T10:31:34;96231.84;;;2.71;100.00
14273;BME280;7220;49.450;11.052;2023-03-08T10:35:37;96218.81;;;2.69;100.00
14273;BME280;7220;49.450;11.052;2023-03-08T10:39:50;96220.34;;;2.73;100.00
14273;BME280;7220;49.450;11.052;2023-03-08T10:43:53;96224.84;;;2.87;100.00
14273;BME280;7220;49.450;11.052;2023-03-08T10:47:58;96224.56;;;2.76;100.00
14273;BME280;7220;49.450;11.052;2023-03-08T10:52:00;96214.09;;;2.76;100.00
14273;BME280;7220;49.450;11.052;2023-03-08T10:56:00;96223.16;;;2.86;100.00
14273;BME280;7220;49.450;11.052;2023-03-08T11:04:20;96200.19;;;3.06;100.00
14273;BME280;7220;49.450;11.052;2023-03-08T11:08:33;96204.09;;;2.98;100.00
14273;BME280;7220;49.450;11.052;2023-03-08T11:12:33;96189.91;;;3.03;100.00
14273;BME280;7220;49.450;11.052;2023-03-08T11:16:44;96189.28;;;2.97;100.00
14273;BME280;7220;49.450;11.052;2023-03-08T11:20:52;96187.94;;;3.06;100.00
14273;BME280;7220;49.450;11.052;2023-03-08T11:25:14;96188.00;;;3.05;100.00
14273;BME280;7220;49.450;11.052;2023-03-08T11:42:15;96157.81;;;3.44;100.00
14273;BME280;7220;49.450;11.052;2023-03-08T11:51:03;96144.22;;;3.82;100.00
14273;BME280;7220;49.450;11.052;2023-03-08T12:03:46;96127.50;;;3.83;100.00
14273;BME280;7220;49.450;11.052;2023-03-08T12:07:51;96114.94;;;3.88;100.00
14273;BME280;7220;49.450;11.052;2023-03-08T12:16:16;96095.44;;;3.92;100.00
14273;BME280;7220;49.450;11.052;2023-03-08T12:20:18;96095.06;;;3.99;100.00
14273;BME280;7220;49.450;11.052;2023-03-08T12:24:45;96078.06;;;4.04;100.00
14273;BME280;7220;49.450;11.052;2023-03-08T12:29:34;96073.25;;;4.11;100.00
14273;BME280;7220;49.450;11.052;2023-03-08T12:33:15;96077.38;;;4.30;100.00
14273;BME280;7220;49.450;11.052;2023-03-08T12:37:24;96065.34;;;4.40;100.00
14273;BME280;7220;49.450;11.052;2023-03-08T12:41:30;96073.59;;;4.34;100.00
14273;BME280;7220;49.450;11.052;2023-03-08T12:45:31;96048.38;;;4.58;100.00
14273;BME280;7220;49.450;11.052;2023-03-08T12:49:37;96042.56;;;4.53;100.00
14273;BME280;7220;49.450;11.052;2023-03-08T12:57:50;96055.28;;;4.74;100.00
14273;BME280;7220;49.450;11.052;2023-03-08T13:05:55;96006.63;;;4.67;100.00
14273;BME280;7220;49.450;11.052;2023-03-08T13:10:03;96027.97;;;4.89;100.00
14273;BME280;7220;49.450;11.052;2023-03-08T13:14:36;96029.50;;;5.07;100.00
14273;BME280;7220;49.450;11.052;2023-03-08T13:18:37;96002.84;;;5.11;100.00
14273;BME280;7220;49.450;11.052;2023-03-08T13:31:27;95999.59;;;5.46;100.00
14273;BME280;7220;49.450;11.052;2023-03-08T13:35:28;96002.97;;;5.74;100.00
14273;BME280;7220;49.450;11.052;2023-03-08T13:39:30;96001.72;;;5.93;100.00
14273;BME280;7220;49.450;11.052;2023-03-08T13:43:32;95978.06;;;6.04;100.00
14273;BME280;7220;49.450;11.052;2023-03-08T13:47:34;95973.22;;;5.98;100.00
14273;BME280;7220;49.450;11.052;2023-03-08T13:51:36;95974.59;;;6.17;100.00
14273;BME280;7220;49.450;11.052;2023-03-08T13:55:45;95982.53;;;6.04;100.00
14273;BME280;7220;49.450;11.052;2023-03-08T13:59:47;95976.63;;;6.00;100.00
14273;BME280;7220;49.450;11.052;2023-03-08T14:03:49;95982.59;;;6.15;100.00
14273;BME280;7220;49.450;11.052;2023-03-08T14:08:05;95965.00;;;6.40;100.00
14273;BME280;7220;49.450;11.052;2023-03-08T14:12:06;95975.81;;;6.48;100.00
14273;BME280;7220;49.450;11.052;2023-03-08T14:16:07;95961.56;;;6.51;100.00
14273;BME280;7220;49.450;11.052;2023-03-08T14:20:19;95971.31;;;6.86;100.00
14273;BME280;7220;49.450;11.052;2023-03-08T14:24:29;95955.50;;;6.97;100.00
14273;BME280;7220;49.450;11.052;2023-03-08T14:28:39;95946.41;;;7.01;100.00
14273;BME280;7220;49.450;11.052;2023-03-08T14:32:54;95930.59;;;7.13;100.00
14273;BME280;7220;49.450;11.052;2023-03-08T14:36:58;95922.38;;;6.93;100.00
14273;BME280;7220;49.450;11.052;2023-03-08T14:41:02;95927.69;;;7.04;100.00
14273;BME280;7220;49.450;11.052;2023-03-08T14:49:20;95925.78;;;7.18;100.00
14273;BME280;7220;49.450;11.052;2023-03-08T14:53:39;95922.56;;;7.37;100.00
14273;BME280;7220;49.450;11.052;2023-03-08T14:57:41;95923.41;;;7.49;100.00
14273;BME280;7220;49.450;11.052;2023-03-08T15:01:41;95929.41;;;7.39;100.00
14273;BME280;7220;49.450;11.052;2023-03-08T15:05:42;95915.13;;;7.53;100.00
14273;BME280;7220;49.450;11.052;2023-03-08T15:09:42;95912.13;;;7.69;100.00
14273;BME280;7220;49.450;11.052;2023-03-08T15:13:43;95921.88;;;7.80;100.00
14273;BME280;7220;49.450;11.052;2023-03-08T15:17:45;95915.22;;;7.86;100.00
14273;BME280;7220;49.450;11.052;2023-03-08T15:21:47;95892.59;;;8.04;100.00
14273;BME280;7220;49.450;11.052;2023-03-08T15:25:47;95891.56;;;7.96;100.00
14273;BME280;7220;49.450;11.052;2023-03-08T15:29:48;95905.88;;;7.93;100.00
14273;BME280;7220;49.450;11.052;2023-03-08T15:33:48;95925.56;;;7.78;100.00
14273;BME280;7220;49.450;11.052;2023-03-08T15:37:49;95940.94;;;8.07;100.00
14273;BME280;7220;49.450;11.052;2023-03-08T15:41:49;95932.06;;;7.96;100.00
14273;BME280;7220;49.450;11.052;2023-03-08T15:45:50;95934.34;;;8.01;100.00
14273;BME280;7220;49.450;11.052;2023-03-08T15:49:51;95951.66;;;8.05;100.00
14273;BME280;7220;49.450;11.052;2023-03-08T15:53:51;95939.50;;;8.14;100.00
14273;BME280;7220;49.450;11.052;2023-03-08T15:57:52;95943.03;;;8.35;100.00
14273;BME280;7220;49.450;11.052;2023-03-08T16:01:52;95923.19;;;8.30;100.00
14273;BME280;7220;49.450;11.052;2023-03-08T16:05:54;95919.44;;;8.44;100.00
14273;BME280;7220;49.450;11.052;2023-03-08T16:09:54;95941.63;;;8.31;100.00
14273;BME280;7220;49.450;11.052;2023-03-08T16:13:55;95925.94;;;8.51;100.00
14273;BME280;7220;49.450;11.052;2023-03-08T16:17:56;95935.31;;;8.44;100.00
14273;BME280;7220;49.450;11.052;2023-03-08T16:21:56;95929.19;;;8.55;100.00
14273;BME280;7220;49.450;11.052;2023-03-08T16:25:59;95903.88;;;8.18;100.00
14273;BME280;7220;49.450;11.052;2023-03-08T16:30:00;95903.41;;;8.24;100.00
14273;BME280;7220;49.450;11.052;2023-03-08T16:34:02;95895.25;;;8.16;100.00
14273;BME280;7220;49.450;11.052;2023-03-08T16:38:03;95888.50;;;8.12;100.00
14273;BME280;7220;49.450;11.052;2023-03-08T16:42:03;95888.59;;;8.21;100.00
14273;BME280;7220;49.450;11.052;2023-03-08T16:46:04;95891.91;;;7.91;100.00
14273;BME280;7220;49.450;11.052;2023-03-08T16:50:04;95891.28;;;8.10;100.00
14273;BME280;7220;49.450;11.052;2023-03-08T16:54:05;95915.69;;;8.02;100.00
14273;BME280;7220;49.450;11.052;2023-03-08T16:58:05;95900.75;;;8.13;100.00
14273;BME280;7220;49.450;11.052;2023-03-08T17:02:12;95901.59;;;8.13;100.00
14273;BME280;7220;49.450;11.052;2023-03-08T17:06:17;95912.06;;;8.15;100.00
14273;BME280;7220;49.450;11.052;2023-03-08T17:10:18;95916.53;;;8.03;100.00
14273;BME280;7220;49.450;11.052;2023-03-08T17:14:18;95905.75;;;7.95;100.00
14273;BME280;7220;49.450;11.052;2023-03-08T17:18:18;95900.09;;;7.88;100.00
14273;BME280;7220;49.450;11.052;2023-03-08T17:22:19;95900.59;;;7.93;100.00
14273;BME280;7220;49.450;11.052;2023-03-08T17:26:21;95908.84;;;8.11;100.00
14273;BME280;7220;49.450;11.052;2023-03-08T17:30:22;95904.63;;;8.09;100.00
14273;BME280;7220;49.450;11.052;2023-03-08T17:34:22;95913.75;;;8.04;100.00
14273;BME280;7220;49.450;11.052;2023-03-08T17:38:23;95909.44;;;8.59;100.00
14273;BME280;7220;49.450;11.052;2023-03-08T17:42:23;95905.09;;;8.46;100.00
14273;BME280;7220;49.450;11.052;2023-03-08T17:46:25;95902.47;;;8.46;100.00
14273;BME280;7220;49.450;11.052;2023-03-08T17:50:26;95902.59;;;8.56;100.00
14273;BME280;7220;49.450;11.052;2023-03-08T17:54:28;95911.78;;;8.41;100.00
14273;BME280;7220;49.450;11.052;2023-03-08T17:58:29;95915.13;;;8.54;100.00
14273;BME280;7220;49.450;11.052;2023-03-08T18:02:30;95900.06;;;8.55;100.00
14273;BME280;7220;49.450;11.052;2023-03-08T18:06:38;95906.03;;;8.68;100.00
14273;BME280;7220;49.450;11.052;2023-03-08T18:10:39;95888.28;;;8.80;100.00
14273;BME280;7220;49.450;11.052;2023-03-08T18:14:40;95885.34;;;8.62;100.00
14273;BME280;7220;49.450;11.052;2023-03-08T18:18:40;95900.47;;;8.71;100.00
14273;BME280;7220;49.450;11.052;2023-03-08T18:22:40;95893.25;;;8.73;100.00
14273;BME280;7220;49.450;11.052;2023-03-08T18:26:41;95901.78;;;8.77;100.00
14273;BME280;7220;49.450;11.052;2023-03-08T18:30:41;95893.31;;;8.83;100.00
14273;BME280;7220;49.450;11.052;2023-03-08T18:34:41;95890.66;;;9.04;100.00
14273;BME280;7220;49.450;11.052;2023-03-08T18:38:42;95883.41;;;8.64;100.00
14273;BME280;7220;49.450;11.052;2023-03-08T18:42:42;95888.53;;;8.77;100.00
14273;BME280;7220;49.450;11.052;2023-03-08T18:46:43;95886.59;;;8.79;100.00
14273;BME280;7220;49.450;11.052;2023-03-08T18:50:43;95893.75;;;8.67;100.00
14273;BME280;7220;49.450;11.052;2023-03-08T18:54:44;95891.41;;;8.74;100.00
14273;BME280;7220;49.450;11.052;2023-03-08T18:58:47;95895.25;;;8.81;100.00
14273;BME280;7220;49.450;11.052;2023-03-08T19:02:48;95886.97;;;8.74;100.00
14273;BME280;7220;49.450;11.052;2023-03-08T19:06:48;95877.97;;;8.65;100.00
14273;BME280;7220;49.450;11.052;2023-03-08T19:10:48;95889.06;;;8.71;100.00
14273;BME280;7220;49.450;11.052;2023-03-08T19:14:48;95874.09;;;8.81;100.00
14273;BME280;7220;49.450;11.052;2023-03-08T19:18:53;95863.41;;;8.92;100.00
14273;BME280;7220;49.450;11.052;2023-03-08T19:22:54;95851.13;;;8.70;100.00
14273;BME280;7220;49.450;11.052;2023-03-08T19:26:56;95869.03;;;8.78;100.00
14273;BME280;7220;49.450;11.052;2023-03-08T19:30:57;95861.59;;;8.93;100.00
14273;BME280;7220;49.450;11.052;2023-03-08T19:34:57;95865.13;;;8.82;100.00
14273;BME280;7220;49.450;11.052;2023-03-08T19:38:58;95853.19;;;8.88;100.00
14273;BME280;7220;49.450;11.052;2023-03-08T19:42:59;95842.94;;;8.94;100.00
14273;BME280;7220;49.450;11.052;2023-03-08T19:47:00;95843.13;;;9.03;100.00
14273;BME280;7220;49.450;11.052;2023-03-08T19:51:00;95858.28;;;9.00;100.00
14273;BME280;7220;49.450;11.052;2023-03-08T19:55:01;95853.03;;;9.10;100.00
14273;BME280;7220;49.450;11.052;2023-03-08T19:59:01;95883.88;;;9.11;100.00
14273;BME280;7220;49.450;11.052;2023-03-08T20:03:02;95869.25;;;9.17;100.00
14273;BME280;7220;49.450;11.052;2023-03-08T20:07:02;95883.69;;;9.03;100.00
14273;BME280;7220;49.450;11.052;2023-03-08T20:11:03;95901.59;;;9.11;100.00
14273;BME280;7220;49.450;11.052;2023-03-08T20:15:04;95892.97;;;9.19;100.00
14273;BME280;7220;49.450;11.052;2023-03-08T20:19:05;95901.63;;;9.21;100.00
14273;BME280;7220;49.450;11.052;2023-03-08T20:23:06;95903.28;;;9.12;100.00
14273;BME280;7220;49.450;11.052;2023-03-08T20:27:06;95897.13;;;9.11;100.00
14273;BME280;7220;49.450;11.052;2023-03-08T20:31:11;95906.63;;;9.14;100.00
14273;BME280;7220;49.450;11.052;2023-03-08T20:35:12;95918.31;;;9.11;100.00
14273;BME280;7220;49.450;11.052;2023-03-08T20:39:15;95918.66;;;8.97;100.00
14273;BME280;7220;49.450;11.052;2023-03-08T20:43:17;95921.34;;;9.07;100.00
14273;BME280;7220;49.450;11.052;2023-03-08T20:47:17;95911.81;;;8.94;100.00
14273;BME280;7220;49.450;11.052;2023-03-08T20:51:19;95925.56;;;8.88;100.00
14273;BME280;7220;49.450;11.052;2023-03-08T20:55:19;95907.03;;;8.88;100.00
14273;BME280;7220;49.450;11.052;2023-03-08T20:59:20;95906.75;;;8.91;100.00
14273;BME280;7220;49.450;11.052;2023-03-08T21:03:23;95901.94;;;8.96;100.00
14273;BME280;7220;49.450;11.052;2023-03-08T21:07:23;95891.03;;;8.78;100.00
14273;BME280;7220;49.450;11.052;2023-03-08T21:11:23;95905.59;;;8.84;100.00
14273;BME280;7220;49.450;11.052;2023-03-08T21:15:24;95912.41;;;8.65;100.00
14273;BME280;7220;49.450;11.052;2023-03-08T21:19:25;95924.78;;;8.76;100.00
14273;BME280;7220;49.450;11.052;2023-03-08T21:23:26;95921.41;;;8.74;100.00
14273;BME280;7220;49.450;11.052;2023-03-08T21:27:26;95927.81;;;8.72;100.00
14273;BME280;7220;49.450;11.052;2023-03-08T21:31:28;95937.53;;;8.71;100.00
14273;BME280;7220;49.450;11.052;2023-03-08T21:35:28;95937.63;;;8.48;100.00
14273;BME280;7220;49.450;11.052;2023-03-08T21:39:29;95956.28;;;8.35;100.00
14273;BME280;7220;49.450;11.052;2023-03-08T21:43:29;95941.81;;;8.51;100.00
14273;BME280;7220;49.450;11.052;2023-03-08T21:47:29;95943.84;;;8.59;100.00
14273;BME280;7220;49.450;11.052;2023-03-08T21:51:31;95938.22;;;8.52;100.00
14273;BME280;7220;49.450;11.052;2023-03-08T21:55:32;95957.59;;;8.30;100.00
14273;BME280;7220;49.450;11.052;2023-03-08T21:59:33;95951.72;;;8.26;100.00
14273;BME280;7220;49.450;11.052;2023-03-08T22:03:33;95937.25;;;8.53;100.00
14273;BME280;7220;49.450;11.052;2023-03-08T22:07:34;95934.09;;;8.59;100.00
14273;BME280;7220;49.450;11.052;2023-03-08T22:11:35;95928.72;;;8.38;100.00
14273;BME280;7220;49.450;11.052;2023-03-08T22:15:35;95910.38;;;8.25;100.00
14273;BME280;7220;49.450;11.052;2023-03-08T22:19:36;95911.03;;;7.95;100.00
14273;BME280;7220;49.450;11.052;2023-03-08T22:23:36;95911.25;;;8.03;100.00
14273;BME280;7220;49.450;11.052;2023-03-08T22:27:37;95905.00;;;8.04;100.00
14273;BME280;7220;49.450;11.052;2023-03-08T22:31:37;95908.84;;;8.11;100.00
14273;BME280;7220;49.450;11.052;2023-03-08T22:35:38;95896.13;;;7.94;100.00
14273;BME280;7220;49.450;11.052;2023-03-08T22:39:38;95897.94;;;7.93;100.00
14273;BME280;7220;49.450;11.052;2023-03-08T22:43:40;95889.63;;;7.86;100.00
14273;BME280;7220;49.450;11.052;2023-03-08T22:47:40;95885.41;;;7.95;100.00
14273;BME280;7220;49.450;11.052;2023-03-08T22:51:41;95876.28;;;7.88;100.00
14273;BME280;7220;49.450;11.052;2023-03-08T22:55:46;95873.91;;;7.85;100.00
14273;BME280;7220;49.450;11.052;2023-03-08T22:59:46;95863.94;;;8.21;100.00
14273;BME280;7220;49.450;11.052;2023-03-08T23:03:47;95873.63;;;7.99;100.00
14273;BME280;7220;49.450;11.052;2023-03-08T23:07:48;95864.63;;;7.90;100.00
14273;BME280;7220;49.450;11.052;2023-03-08T23:11:49;95863.34;;;7.85;100.00
14273;BME280;7220;49.450;11.052;2023-03-08T23:15:49;95863.50;;;8.04;100.00
14273;BME280;7220;49.450;11.052;2023-03-08T23:19:49;95860.06;;;7.93;100.00
14273;BME280;7220;49.450;11.052;2023-03-08T23:23:50;95859.63;;;8.20;100.00
14273;BME280;7220;49.450;11.052;2023-03-08T23:27:50;95852.91;;;8.16;100.00
14273;BME280;7220;49.450;11.052;2023-03-08T23:31:51;95838.06;;;8.25;100.00
14273;BME280;7220;49.450;11.052;2023-03-08T23:35:51;95833.63;;;8.25;100.00
14273;BME280;7220;49.450;11.052;2023-03-08T23:39:52;95844.09;;;8.27;100.00
14273;BME280;7220;49.450;11.052;2023-03-08T23:43:54;95844.69;;;8.30;100.00
14273;BME280;7220;49.450;11.052;2023-03-08T23:47:55;95841.56;;;8.25;100.00
14273;BME280;7220;49.450;11.052;2023-03-08T23:51:55;95840.66;;;8.47;100.00
14273;BME280;7220;49.450;11.052;2023-03-08T23:55:55;95831.44;;;8.30;100.00
14273;BME280;7220;49.450;11.052;2023-03-08T23:59:56;95813.06;;;8.50;100.00
